createdAt,value
2019-02-10T00:00:43.394Z,61.48
2019-02-10T00:03:17.160Z,52.85
2019-02-10T00:05:50.597Z,76.42
2019-02-10T00:08:24.005Z,64.22
2019-02-10T00:10:58.545Z,68.28
2019-02-10T00:13:33.777Z,52.67
2019-02-10T00:16:10.358Z,58.33
2019-02-10T00:18:44.519Z,61.48
2019-02-10T00:21:17.962Z,65.30
2019-02-10T00:23:51.644Z,66.15
2019-02-10T00:26:35.114Z,82.53
2019-02-10T00:29:08.450Z,79.10
2019-02-10T00:31:42.258Z,75.45
2019-02-10T00:34:15.824Z,74.77
2019-02-10T00:36:49.489Z,75.30
2019-02-10T00:39:22.924Z,76.77
2019-02-10T00:41:56.187Z,72.95
2019-02-10T00:44:29.749Z,65.08
2019-02-10T00:47:03.401Z,60.70
2019-02-10T00:49:36.987Z,58.52
2019-02-10T00:52:10.485Z,49.25
2019-02-10T00:54:44.059Z,48.40
2019-02-10T00:57:17.590Z,49.60
2019-02-10T00:59:50.996Z,46.60
2019-02-10T01:02:24.511Z,43.63
2019-02-10T01:04:57.931Z,50.80
2019-02-10T01:07:31.396Z,51.80
2019-02-10T01:10:05.051Z,52.78
2019-02-10T01:12:38.574Z,47.38
2019-02-10T01:15:12.016Z,52.30
2019-02-10T01:17:45.918Z,59.50
2019-02-10T01:20:19.328Z,71.02
2019-02-10T01:22:52.918Z,64.62
2019-02-10T01:25:36.817Z,67.62
2019-02-10T01:28:10.252Z,64.90
2019-02-10T01:30:55.614Z,59.98
2019-02-10T01:33:33.070Z,56.48
2019-02-10T01:36:06.392Z,44.38
2019-02-10T01:38:40.380Z,48.40
2019-02-10T01:41:14.011Z,40.45
2019-02-10T01:43:47.466Z,46.30
2019-02-10T01:46:21.104Z,55.05
2019-02-10T01:48:54.252Z,49.95
2019-02-10T01:53:59.986Z,56.80
2019-02-10T01:56:33.790Z,64.42
2019-02-10T01:59:07.494Z,71.40
2019-02-10T02:01:41.106Z,77.32
2019-02-10T02:04:15.552Z,82.30
2019-02-10T02:06:59.284Z,84.42
2019-02-10T02:09:44.823Z,74.70
2019-02-10T02:12:31.181Z,69.80
2019-02-10T02:15:16.599Z,67.37
2019-02-10T02:17:59.100Z,73.78
2019-02-10T02:20:32.603Z,64.10
2019-02-10T02:23:06.022Z,57.43
2019-02-10T02:25:40.046Z,66.15
2019-02-10T02:28:14.108Z,71.35
2019-02-10T02:30:48.772Z,73.57
2019-02-10T02:33:22.176Z,67.00
2019-02-10T02:35:55.930Z,66.72
2019-02-10T02:38:28.762Z,65.47
2019-02-10T02:41:02.751Z,80.35
2019-02-10T02:43:37.748Z,60.08
2019-02-10T02:46:11.432Z,70.25
2019-02-10T02:48:45.136Z,68.25
2019-02-10T02:51:18.554Z,56.58
2019-02-10T02:54:04.582Z,67.22
2019-02-10T02:56:46.033Z,60.92
2019-02-10T02:59:22.470Z,68.97
2019-02-10T03:01:56.023Z,86.45
2019-02-10T03:04:29.881Z,90.20
2019-02-10T03:07:03.645Z,105.45
2019-02-10T03:09:37.016Z,163.60
2019-02-10T03:12:10.799Z,163.62
2019-02-10T03:14:43.730Z,158.85
2019-02-10T03:19:49.504Z,91.90
2019-02-10T03:22:23.255Z,80.95
2019-02-10T03:24:56.823Z,84.55
2019-02-10T03:27:30.457Z,65.52
2019-02-10T03:30:04.064Z,79.50
2019-02-10T03:32:38.181Z,82.95
2019-02-10T03:35:12.331Z,86.57
2019-02-10T03:37:46.697Z,79.12
2019-02-10T03:40:20.504Z,79.32
2019-02-10T03:42:53.926Z,71.07
2019-02-10T03:45:28.541Z,74.80
2019-02-10T03:48:02.202Z,83.95
2019-02-10T03:50:48.100Z,81.63
2019-02-10T03:53:34.253Z,69.67
2019-02-10T03:56:17.565Z,75.65
2019-02-10T03:59:00.384Z,64.27
2019-02-10T04:01:34.064Z,68.55
2019-02-10T04:04:07.958Z,45.08
2019-02-10T04:06:48.236Z,38.17
2019-02-10T04:09:22.044Z,37.00
2019-02-10T04:11:55.425Z,33.85
2019-02-10T04:14:29.358Z,37.28
2019-02-10T04:17:05.148Z,38.98
2019-02-10T04:19:38.915Z,58.70
2019-02-10T04:22:12.838Z,72.22
2019-02-10T04:24:46.314Z,92.05
2019-02-10T04:27:19.367Z,88.80
2019-02-10T04:29:52.829Z,103.50
2019-02-10T04:32:26.447Z,84.07
2019-02-10T04:35:01.380Z,53.05
2019-02-10T04:37:34.976Z,49.25
2019-02-10T04:40:10.785Z,40.38
2019-02-10T04:42:44.444Z,46.53
2019-02-10T04:45:30.392Z,49.80
2019-02-10T04:48:04.861Z,63.65
2019-02-10T04:50:38.286Z,62.85
2019-02-10T04:53:12.041Z,47.27
2019-02-10T04:55:44.982Z,105.52
2019-02-10T04:58:18.480Z,101.60
2019-02-10T05:00:52.273Z,115.55
2019-02-10T05:03:25.749Z,70.55
2019-02-10T05:05:59.357Z,46.35
2019-02-10T05:08:33.192Z,49.05
2019-02-10T05:11:06.805Z,49.25
2019-02-10T05:13:43.602Z,43.45
2019-02-10T05:16:17.009Z,42.78
2019-02-10T05:18:50.485Z,48.42
2019-02-10T05:21:24.215Z,53.85
2019-02-10T05:24:03.424Z,106.83
2019-02-10T05:26:33.180Z,116.08
2019-02-10T05:29:06.802Z,194.75
2019-02-10T05:31:40.377Z,171.98
2019-02-10T05:34:31.665Z,155.65
2019-02-10T05:37:17.911Z,138.03
2019-02-10T05:40:02.243Z,164.77
2019-02-10T05:42:45.061Z,156.72
2019-02-10T05:45:18.657Z,161.70
2019-02-10T05:47:52.154Z,155.80
2019-02-10T05:50:30.366Z,150.87
2019-02-10T05:53:04.054Z,143.52
2019-02-10T05:55:39.371Z,158.93
2019-02-10T05:58:13.071Z,170.28
2019-02-10T06:00:46.063Z,178.40
2019-02-10T06:03:31.799Z,112.03
2019-02-10T06:06:17.915Z,131.43
2019-02-10T06:09:04.289Z,133.20
2019-02-10T06:11:51.643Z,135.30
2019-02-10T06:14:28.344Z,73.78
2019-02-10T06:17:03.198Z,64.75
2019-02-10T06:19:38.105Z,73.75
2019-02-10T06:22:14.893Z,70.45
2019-02-10T06:24:48.413Z,67.55
2019-02-10T06:27:21.859Z,60.48
2019-02-10T06:29:55.621Z,65.47
2019-02-10T06:32:29.901Z,73.17
2019-02-10T06:35:04.048Z,68.83
2019-02-10T06:37:39.287Z,85.32
2019-02-10T06:40:14.728Z,92.97
2019-02-10T06:42:48.177Z,101.65
2019-02-10T06:45:34.763Z,72.32
2019-02-10T06:48:20.053Z,77.27
2019-02-10T06:50:56.676Z,83.33
2019-02-10T06:53:30.049Z,95.65
2019-02-10T06:56:03.796Z,117.25
2019-02-10T06:58:37.413Z,95.38
2019-02-10T07:01:32.133Z,60.55
2019-02-10T07:04:32.363Z,62.17
2019-02-10T07:07:06.699Z,69.90
2019-02-10T07:09:41.516Z,78.35
2019-02-10T07:12:48.994Z,90.22
2019-02-10T07:15:57.959Z,103.70
2019-02-10T07:19:06.287Z,122.95
2019-02-10T07:21:42.677Z,110.63
2019-02-10T07:24:55.875Z,85.90
2019-02-10T07:27:32.147Z,90.00
2019-02-10T07:31:08.833Z,78.80
2019-02-10T07:34:14.393Z,89.62
2019-02-10T07:37:18.233Z,92.12
2019-02-10T07:40:18.884Z,98.15
2019-02-10T07:43:24.070Z,96.85
2019-02-10T07:46:30.706Z,132.25
2019-02-10T07:49:16.222Z,136.52
2019-02-10T07:52:01.932Z,117.55
2019-02-10T07:55:02.008Z,92.50
2019-02-10T07:58:16.555Z,76.87
2019-02-10T08:01:33.157Z,64.15
2019-02-10T08:04:55.026Z,75.92
2019-02-10T08:08:03.318Z,75.03
2019-02-10T08:11:45.724Z,71.82
2019-02-10T08:14:58.708Z,75.40
2019-02-10T08:18:08.754Z,99.80
2019-02-10T08:21:18.587Z,60.50
2019-02-10T08:24:35.015Z,76.17
2019-02-10T08:27:38.070Z,83.67
2019-02-10T08:30:48.316Z,73.13
2019-02-10T08:33:40.893Z,88.87
2019-02-10T08:36:41.872Z,98.10
2019-02-10T08:39:57.429Z,62.80
2019-02-10T08:43:25.840Z,83.90
2019-02-10T08:46:52.662Z,37.67
2019-02-10T08:49:38.946Z,66.02
2019-02-10T08:52:58.457Z,51.53
2019-02-10T08:55:32.269Z,23.25
2019-02-10T08:58:08.780Z,28.38
2019-02-10T09:00:42.945Z,26.07
2019-02-10T09:03:19.667Z,42.73
2019-02-10T09:05:54.864Z,41.88
2019-02-10T09:08:29.755Z,38.70
2019-02-10T09:11:03.555Z,47.30
2019-02-10T09:13:37.413Z,52.90
2019-02-10T09:16:11.746Z,40.67
2019-02-10T09:18:46.559Z,33.50
2019-02-10T09:21:20.466Z,29.20
2019-02-10T09:23:53.758Z,31.85
2019-02-10T09:26:27.549Z,33.67
2019-02-10T09:29:02.136Z,41.10
2019-02-10T09:31:47.876Z,51.30
2019-02-10T09:34:30.666Z,33.95
2019-02-10T09:37:03.401Z,25.27
2019-02-10T09:39:37.729Z,30.55
2019-02-10T09:42:10.911Z,26.55
2019-02-10T09:47:19.708Z,19.82
2019-02-10T09:49:53.533Z,35.33
2019-02-10T09:52:27.682Z,38.95
2019-02-10T09:55:01.381Z,52.93
2019-02-10T09:57:35.075Z,36.68
2019-02-10T10:00:10.281Z,25.85
2019-02-10T10:02:44.815Z,36.95
2019-02-10T10:05:18.660Z,20.50
2019-02-10T10:07:52.797Z,25.12
2019-02-10T10:10:27.488Z,32.05
2019-02-10T10:13:02.055Z,24.15
2019-02-10T10:15:36.326Z,14.95
2019-02-10T10:18:11.100Z,28.02
2019-02-10T10:20:44.258Z,19.17
2019-02-10T10:25:50.718Z,15.83
2019-02-10T10:28:24.816Z,31.62
2019-02-10T10:31:10.758Z,34.43
2019-02-10T10:33:56.470Z,38.67
2019-02-10T10:36:29.847Z,16.77
2019-02-10T10:39:11.298Z,16.70
2019-02-10T10:41:45.977Z,23.70
2019-02-10T10:44:19.958Z,14.80
2019-02-10T10:46:53.376Z,26.82
2019-02-10T10:49:26.493Z,18.75
2019-02-10T10:54:32.349Z,22.00
2019-02-10T10:57:12.379Z,27.40
2019-02-10T10:59:47.295Z,19.17
2019-02-10T11:02:22.368Z,15.70
2019-02-10T11:04:57.364Z,20.20
2019-02-10T11:07:32.180Z,23.85
2019-02-10T11:10:06.503Z,18.27
2019-02-10T11:12:40.362Z,22.05
2019-02-10T11:15:14.044Z,16.48
2019-02-10T11:17:47.982Z,18.05
2019-02-10T11:20:33.938Z,14.30
2019-02-10T11:23:07.370Z,30.72
2019-02-10T11:25:42.846Z,16.00
2019-02-10T11:28:16.937Z,18.07
2019-02-10T11:30:50.130Z,17.98
2019-02-10T11:35:56.120Z,13.50
2019-02-10T11:38:29.925Z,27.20
2019-02-10T11:41:06.414Z,23.15
2019-02-10T11:43:40.100Z,20.25
2019-02-10T11:46:13.642Z,13.32
2019-02-10T11:48:58.844Z,18.17
2019-02-10T11:51:44.740Z,12.25
2019-02-10T11:54:30.314Z,23.00
2019-02-10T12:00:15.218Z,17.15
2019-02-10T12:02:49.202Z,8.95
2019-02-10T12:05:22.988Z,18.45
2019-02-10T12:07:56.938Z,12.53
2019-02-10T12:10:30.469Z,14.43
2019-02-10T12:13:04.932Z,10.08
2019-02-10T12:15:47.725Z,35.83
2019-02-10T12:18:22.040Z,44.30
2019-02-10T12:20:56.004Z,15.95
2019-02-10T12:23:29.418Z,14.85
2019-02-10T12:26:03.174Z,19.55
2019-02-10T12:28:36.534Z,55.00
2019-02-10T12:31:15.776Z,46.90
2019-02-10T12:33:49.100Z,47.88
2019-02-10T12:36:24.004Z,16.87
2019-02-10T12:38:57.681Z,16.10
2019-02-10T12:41:31.465Z,169.97
2019-02-10T12:44:05.366Z,36.08
2019-02-10T12:46:40.503Z,116.57
2019-02-10T12:49:26.673Z,26.50
2019-02-10T12:54:58.482Z,26.00
2019-02-10T12:57:32.142Z,23.12
2019-02-10T13:00:10.120Z,34.45
2019-02-10T13:02:45.272Z,12.43
2019-02-10T13:05:19.093Z,12.63
2019-02-10T13:07:54.664Z,19.55
2019-02-10T13:10:29.042Z,18.90
2019-02-10T13:13:03.185Z,12.13
2019-02-10T13:15:36.958Z,10.72
2019-02-10T13:18:10.942Z,10.88
2019-02-10T13:20:44.958Z,13.00
2019-02-10T13:23:18.454Z,13.05
2019-02-10T13:25:52.549Z,17.20
2019-02-10T13:28:27.776Z,34.20
2019-02-10T13:31:01.839Z,19.35
2019-02-10T13:33:36.305Z,16.37
2019-02-10T13:36:20.276Z,11.10
2019-02-10T13:38:58.630Z,12.30
2019-02-10T13:41:40.064Z,17.87
2019-02-10T13:44:14.674Z,15.43
2019-02-10T13:46:49.375Z,13.98
2019-02-10T13:49:32.462Z,17.95
2019-02-10T13:52:06.390Z,14.80
2019-02-10T13:54:49.406Z,15.40
2019-02-10T13:57:24.160Z,11.45
2019-02-10T13:59:58.893Z,13.45
2019-02-10T14:02:33.629Z,17.45
2019-02-10T14:05:07.303Z,23.22
2019-02-10T14:07:41.985Z,19.80
2019-02-10T14:10:24.994Z,13.18
2019-02-10T14:12:55.255Z,12.23
2019-02-10T14:15:30.344Z,22.00
2019-02-10T14:18:03.833Z,27.40
2019-02-10T14:20:37.859Z,21.07
2019-02-10T14:23:11.445Z,25.48
2019-02-10T14:25:45.299Z,26.87
2019-02-10T14:28:19.644Z,11.73
2019-02-10T14:30:53.442Z,22.62
2019-02-10T14:33:27.085Z,34.85
2019-02-10T14:36:01.124Z,24.23
2019-02-10T14:38:38.874Z,25.23
2019-02-10T14:41:12.607Z,17.73
2019-02-10T14:43:47.034Z,15.60
2019-02-10T14:46:21.135Z,27.25
2019-02-10T14:48:54.780Z,36.23
2019-02-10T14:51:28.484Z,36.20
2019-02-10T14:54:04.419Z,36.70
2019-02-10T14:56:51.023Z,45.15
2019-02-10T14:59:37.202Z,38.58
2019-02-10T15:02:20.910Z,54.80
2019-02-10T15:04:56.430Z,31.68
2019-02-10T15:07:30.017Z,41.50
2019-02-10T15:10:04.001Z,23.35
2019-02-10T15:12:37.844Z,36.48
2019-02-10T15:15:12.192Z,76.95
2019-02-10T15:17:47.053Z,69.65
2019-02-10T15:20:21.116Z,77.17
2019-02-10T15:22:54.797Z,219.32
2019-02-10T15:25:28.766Z,184.70
2019-02-10T15:28:04.148Z,129.78
2019-02-10T15:30:38.709Z,326.18
2019-02-10T15:33:13.367Z,327.45
2019-02-10T15:35:48.711Z,247.05
2019-02-10T15:38:25.523Z,276.42
2019-02-10T15:40:59.812Z,339.17
2019-02-10T15:43:33.649Z,363.52
2019-02-10T15:46:07.782Z,350.45
2019-02-10T15:48:51.843Z,269.55
2019-02-10T15:51:37.214Z,288.20
2019-02-10T15:54:10.876Z,397.90
2019-02-10T15:56:45.834Z,418.43
2019-02-10T15:59:19.769Z,405.05
2019-02-10T16:01:53.046Z,406.90
2019-02-10T16:04:27.524Z,505.93
2019-02-10T16:07:01.414Z,597.83
2019-02-10T16:09:37.366Z,449.52
2019-02-10T16:12:11.193Z,420.70
2019-02-10T16:14:45.429Z,488.90
2019-02-10T16:17:19.293Z,306.45
2019-02-10T16:19:53.315Z,208.68
2019-02-10T16:22:27.571Z,188.18
2019-02-10T16:25:03.249Z,167.93
2019-02-10T16:27:38.139Z,165.30
2019-02-10T16:30:14.005Z,250.90
2019-02-10T16:32:50.133Z,378.65
2019-02-10T16:35:23.533Z,375.98
2019-02-10T16:37:58.205Z,296.35
2019-02-10T16:40:32.363Z,332.87
2019-02-10T16:43:06.403Z,199.47
2019-02-10T16:45:40.705Z,156.43
2019-02-10T16:48:14.943Z,129.70
2019-02-10T16:50:56.405Z,117.05
2019-02-10T16:53:32.165Z,144.82
2019-02-10T16:56:07.534Z,147.20
2019-02-10T16:58:42.615Z,134.67
2019-02-10T17:01:17.195Z,161.80
2019-02-10T17:04:04.216Z,176.32
2019-02-10T17:06:39.606Z,169.02
2019-02-10T17:09:19.845Z,181.80
2019-02-10T17:11:54.725Z,218.55
2019-02-10T17:14:29.303Z,261.70
2019-02-10T17:17:03.407Z,202.38
2019-02-10T17:19:38.854Z,232.05
2019-02-10T17:22:13.239Z,265.92
2019-02-10T17:24:48.731Z,178.62
2019-02-10T17:27:26.684Z,210.85
2019-02-10T17:30:00.899Z,216.05
2019-02-10T17:32:37.145Z,196.10
2019-02-10T17:35:12.015Z,240.50
2019-02-10T17:37:48.052Z,271.07
2019-02-10T17:40:26.356Z,293.88
2019-02-10T17:43:02.948Z,334.18
2019-02-10T17:45:36.839Z,327.10
2019-02-10T17:48:11.573Z,300.38
2019-02-10T17:50:46.689Z,271.95
2019-02-10T17:53:21.814Z,226.80
2019-02-10T17:55:55.731Z,236.47
2019-02-10T17:58:32.177Z,286.27
2019-02-10T18:01:06.270Z,278.92
2019-02-10T18:03:40.276Z,266.10
2019-02-10T18:06:15.113Z,238.28
2019-02-10T18:08:48.542Z,246.07
2019-02-10T18:14:50.782Z,172.87
2019-02-10T18:17:46.719Z,160.30
2019-02-10T18:20:40.741Z,206.47
2019-02-10T18:23:43.255Z,193.55
2019-02-10T18:26:39.881Z,220.45
2019-02-10T18:29:36.637Z,297.72
2019-02-10T18:32:41.117Z,428.08
2019-02-10T18:35:33.978Z,278.67
2019-02-10T18:38:29.092Z,391.12
2019-02-10T18:41:22.474Z,630.37
2019-02-10T18:44:16.275Z,470.92
2019-02-10T18:47:18.670Z,423.78
2019-02-10T18:50:15.331Z,413.18
2019-02-10T18:53:12.047Z,282.07
2019-02-10T18:56:08.222Z,282.73
2019-02-10T18:58:57.216Z,247.40
2019-02-10T19:01:59.269Z,270.57
2019-02-10T19:04:46.721Z,246.18
2019-02-10T19:07:40.505Z,324.37
2019-02-10T19:13:18.837Z,233.85
2019-02-10T19:16:00.481Z,207.60
2019-02-10T19:19:02.789Z,198.62
2019-02-10T19:21:56.593Z,191.03
2019-02-10T19:27:52.282Z,152.68
2019-02-10T19:30:43.131Z,170.55
2019-02-10T19:33:44.001Z,179.80
2019-02-10T19:36:43.348Z,167.98
2019-02-10T19:39:29.518Z,178.72
2019-02-10T19:42:22.547Z,182.20
2019-02-10T19:45:27.808Z,201.62
2019-02-10T19:48:20.311Z,247.88
2019-02-10T19:51:22.447Z,237.17
2019-02-10T19:54:22.447Z,291.45
2019-02-10T19:57:35.297Z,264.32
2019-02-10T20:00:36.127Z,296.32
2019-02-10T20:03:37.135Z,457.27
2019-02-10T20:06:35.709Z,424.82
2019-02-10T20:09:30.409Z,379.48
2019-02-10T20:12:39.911Z,314.12
2019-02-10T20:15:25.150Z,268.17
2019-02-10T20:18:22.251Z,207.55
2019-02-10T20:21:25.767Z,185.48
2019-02-10T20:24:22.199Z,317.65
2019-02-10T20:27:27.481Z,264.63
2019-02-10T20:30:35.811Z,260.43
2019-02-10T20:33:25.828Z,265.20
2019-02-10T20:36:13.295Z,284.67
2019-02-10T20:39:07.152Z,363.27
2019-02-10T20:41:55.087Z,344.45
2019-02-10T20:45:01.277Z,330.75
2019-02-10T20:47:45.849Z,502.25
2019-02-10T20:50:46.726Z,502.52
2019-02-10T20:53:49.839Z,397.30
2019-02-10T20:56:54.758Z,412.73
2019-02-10T20:59:57.753Z,371.62
2019-02-10T21:03:00.412Z,380.33
2019-02-10T21:05:52.585Z,372.07
2019-02-10T21:08:49.229Z,412.32
2019-02-10T21:11:44.670Z,396.65
2019-02-10T21:14:38.725Z,401.05
2019-02-10T21:17:31.675Z,430.30
2019-02-10T21:20:21.628Z,430.10
2019-02-10T21:23:07.948Z,401.77
2019-02-10T21:26:01.863Z,380.60
2019-02-10T21:28:57.771Z,418.33
2019-02-10T21:32:11.400Z,427.50
2019-02-10T21:35:03.740Z,447.95
2019-02-10T21:37:43.479Z,401.48
2019-02-10T21:40:46.171Z,389.42
2019-02-10T21:43:41.387Z,359.57
2019-02-10T21:46:40.084Z,392.40
2019-02-10T21:49:17.250Z,462.18
2019-02-10T21:51:55.153Z,433.95
2019-02-10T21:54:28.901Z,414.50
2019-02-10T21:57:02.967Z,419.20
2019-02-10T21:59:37.055Z,412.45
2019-02-10T22:02:10.571Z,376.62
2019-02-10T22:04:43.963Z,384.05
2019-02-10T22:07:17.414Z,360.85
2019-02-10T22:09:50.633Z,357.65
2019-02-10T22:15:09.010Z,391.10
2019-02-10T22:17:42.302Z,323.93
2019-02-10T22:20:15.778Z,254.75
2019-02-10T22:22:49.384Z,272.20
2019-02-10T22:25:22.942Z,270.33
2019-02-10T22:27:56.414Z,456.97
2019-02-10T22:30:31.521Z,452.07
2019-02-10T22:33:05.269Z,451.02
2019-02-10T22:35:38.767Z,305.05
2019-02-10T22:38:12.284Z,578.23
2019-02-10T22:40:45.771Z,312.08
2019-02-10T22:43:21.286Z,172.57
2019-02-10T22:45:56.033Z,144.13
2019-02-10T22:48:29.532Z,140.70
2019-02-10T22:51:02.974Z,202.70
2019-02-10T22:53:47.295Z,188.10
2019-02-10T22:56:31.771Z,218.85
2019-02-10T22:59:14.173Z,219.55
2019-02-10T23:01:47.544Z,192.55
2019-02-10T23:04:21.607Z,196.02
2019-02-10T23:06:55.331Z,218.65
2019-02-10T23:09:28.845Z,189.22
2019-02-10T23:12:02.477Z,223.25
2019-02-10T23:14:36.977Z,302.45
2019-02-10T23:17:10.515Z,282.00
2019-02-10T23:19:44.179Z,275.90
2019-02-10T23:22:19.056Z,269.25
2019-02-10T23:24:52.594Z,305.62
2019-02-10T23:27:27.440Z,298.45
2019-02-10T23:30:01.268Z,256.17
2019-02-10T23:32:35.014Z,283.70
2019-02-10T23:35:08.784Z,296.30
2019-02-10T23:37:42.269Z,331.87
2019-02-10T23:40:16.242Z,312.00
2019-02-10T23:42:49.909Z,272.12
2019-02-10T23:45:23.624Z,240.22
2019-02-10T23:47:57.231Z,344.75
2019-02-10T23:50:30.826Z,376.90
2019-02-10T23:53:16.783Z,320.60
2019-02-10T23:55:59.143Z,251.12
2019-02-10T23:58:32.536Z,199.32
